CPX673 Details

Departure: Grand Bahama International Airport (MYGF)
Arrival: Lynden Pindling International Airport (MYNN) at N/A
Route: ZFP BR65V ZQA
Notes:


Current Weather Information
MYGF 250000Z 14004KT 9999 FEW015CB SCT018TCU BKN200 28/25 A2993
MYNN 250500Z 18004KT 9999 FEW016CB BKN200 28/26 A2999